Flood From: 17-02-2018 16:00 Until: 18-02-2018 16:00 warning for: Flood Level: Yellow info button

Although rather usual in this region, locally or potentially dangerous phenomena are expected. (such as local winds, summer thunderstorms, rising streams or high waves) Be aware and pay attention to the latest weather updates, especially if you carry out activities exposed to weather or close to a stream or shoreline. 


Meteo18 Weather Cam more information Meteo18 Weather Cam


Thunder radar more information blitzortung!


Rain radar more information rain snow radar


Visit our other weather sites:

Template documentation
and downloads

And another site



Weather Underground History page Text

Daily Summary for January 4, 2018 Units:  Metric    English   Both
« Previous Day
Next Day »
Daily Weekly Monthly Yearly Custom
  High: Low: Average:
Temperature: -17.8 °C -13.1 °C -11.4 °C
Dew Point: -17.8 °C -13.6 °C -11.9 °C
Humidity: Humidity % 87 % 93 %
Wind Speed: 0 km/h 2.3 km/h 32.2 km/h
Wind Gust: 0 km/h - -
Wind:- - WSW
Pressure: 0 hPa 34049.6 hPa -
Precipitation: 355.6 mm    
Historical Graphs
 
 
Tabular Data for January 4, 2018
Time Temperature Dew Point Pressure Wind Wind Speed Wind Gust Humidity Rainfall Rate (Hourly)
-17.8 °C -17.8 °C 0 hPa Calm     Humidity % 0 mm
00:09 -13 °C -13.3 °C 34256.2 hPa SW 12.7 km/h 23.3 km/h 96 % 50.8 mm
00:15 -12.9 °C -13.3 °C 34256.2 hPa SW 20.9 km/h 41.4 km/h 96 % 45.72 mm
00:21 -12.9 °C -13.3 °C 34256.2 hPa SW 20.9 km/h 28.5 km/h 96 % 50.8 mm
00:27 -12.9 °C -13.3 °C 34246 hPa West 7.6 km/h 28.5 km/h 96 % 50.8 mm
00:43 -12.9 °C -13.2 °C 34222.3 hPa SW 17.9 km/h 28.5 km/h 96 % 50.8 mm
00:49 -12.9 °C -13.2 °C 34222.3 hPa SW 31.4 km/h 33.6 km/h 96 % 50.8 mm
00:57 -12.9 °C -13.2 °C 34212.1 hPa WSW 15.6 km/h 25.9 km/h 96 % 58.42 mm
01:15 -12.9 °C -13.2 °C 34198.6 hPa SW 15.6 km/h 23.3 km/h 96 % 63.5 mm
01:27 -12.9 °C -13.2 °C 34188.4 hPa WSW 10.3 km/h 23.3 km/h 96 % 58.42 mm
01:41 -12.9 °C -13.2 °C 34178.3 hPa SW 10.3 km/h 18.2 km/h 96 % 58.42 mm
01:47 -12.9 °C -13.3 °C 34178.3 hPa SW 12.7 km/h 18.2 km/h 96 % 58.42 mm
01:53 -12.9 °C -13.3 °C 34164.7 hPa SW 12.7 km/h 18.2 km/h 96 % 58.42 mm
01:55 -12.9 °C -13.3 °C 34164.7 hPa SSW 5.1 km/h 18.2 km/h 96 % 58.42 mm
02:07 -12.9 °C -13.3 °C 34164.7 hPa SSW 5.1 km/h 15.6 km/h 96 % 45.72 mm
02:13 -12.9 °C -13.3 °C 34164.7 hPa SW 10.3 km/h 15.6 km/h 96 % 45.72 mm
02:25 -13 °C -13.2 °C 34164.7 hPa SW 10.3 km/h 18.2 km/h 97 % 38.1 mm
02:37 -13 °C -13.2 °C 34154.6 hPa South 10.3 km/h 18.2 km/h 97 % 33.02 mm
02:49 -13 °C -13.2 °C 34144.4 hPa SSW 10.3 km/h 20.8 km/h 97 % 25.4 mm
03:01 -13 °C -13.2 °C 34144.4 hPa SW 5.1 km/h 15.6 km/h 97 % 25.4 mm
03:07 -13.1 °C -13.3 °C 34144.4 hPa South 5.1 km/h 12.9 km/h 97 % 20.32 mm
03:13 -13.1 °C -13.3 °C 34144.4 hPa SSW 10.3 km/h 12.9 km/h 97 % 12.7 mm
03:17 -13.1 °C -13.3 °C 34144.4 hPa SSW 7.6 km/h 12.9 km/h 97 % 12.7 mm
03:19 -13.1 °C -13.3 °C 34144.4 hPa SSW 5.1 km/h 10.3 km/h 97 % 12.7 mm
03:21 -13.1 °C -13.3 °C 34144.4 hPa South 5.1 km/h 12.9 km/h 97 % 20.32 mm
03:27 -13.1 °C -13.3 °C 34130.9 hPa SSW 10.3 km/h 10.3 km/h 97 % 20.32 mm
03:33 -13 °C -13.2 °C 34130.9 hPa SSW 2.3 km/h 15.6 km/h 97 % 12.7 mm
03:39 -13 °C -13.2 °C 34130.9 hPa SSW 5.1 km/h 10.3 km/h 97 % 12.7 mm
03:45 -13 °C -13.2 °C 34130.9 hPa WSW 5.1 km/h 10.3 km/h 97 % 20.32 mm
03:51 -12.9 °C -13.2 °C 34130.9 hPa SW 5.1 km/h 10.3 km/h 97 % 20.32 mm
04:05 -12.6 °C -12.7 °C 34120.7 hPa West 5.1 km/h 12.9 km/h 98 % 25.4 mm
04:15 -12.2 °C -12.3 °C 34120.7 hPa WSW 15.6 km/h 25.9 km/h 98 % 38.1 mm
04:21 -11.9 °C -12.1 °C 34120.7 hPa SW 23 km/h 28.5 km/h 98 % 38.1 mm
04:27 -11.7 °C -11.9 °C 34120.7 hPa SW 10.3 km/h 23.3 km/h 98 % 38.1 mm
04:33 -11.4 °C -11.6 °C 34120.7 hPa West 33.6 km/h 33.6 km/h 98 % 45.72 mm
04:39 -11.3 °C -11.4 °C 34107.2 hPa WSW 17.9 km/h 49.2 km/h 98 % 38.1 mm
04:45 -11.2 °C -11.3 °C 34107.2 hPa West 36.5 km/h 49.2 km/h 98 % 38.1 mm
04:51 -11.1 °C -11.2 °C 34107.2 hPa WNW 20.9 km/h 49.2 km/h 98 % 38.1 mm
04:55 -11 °C -11.2 °C 34107.2 hPa WSW 31.4 km/h 44.1 km/h 98 % 38.1 mm
05:01 -10.9 °C -11.2 °C 34107.2 hPa SW 33.6 km/h 44.1 km/h 97 % 38.1 mm
05:07 -10.9 °C -11.2 °C 34107.2 hPa WNW 44.1 km/h 64.7 km/h 97 % 33.02 mm
05:14 -10.8 °C -11.2 °C 34097 hPa WSW 44.1 km/h 57 km/h 96 % 25.4 mm
05:18 -10.8 °C -11.2 °C 34107.2 hPa WSW 31.4 km/h 38.8 km/h 96 % 20.32 mm
05:26 -10.8 °C -11.1 °C 34107.2 hPa West 46.3 km/h 57 km/h 96 % 20.32 mm
05:28 -10.8 °C -11.1 °C 34107.2 hPa WSW 33.6 km/h 57 km/h 96 % 20.32 mm
05:30 -10.8 °C -11.2 °C 34097 hPa WSW 31.4 km/h 51.8 km/h 95 % 12.7 mm
05:32 -10.8 °C -11.1 °C 34097 hPa SW 51.5 km/h 54.4 km/h 96 % 12.7 mm
05:40 -10.8 °C -11.2 °C 34107.2 hPa West 38.8 km/h 57 km/h 95 % 12.7 mm
05:52 -10.7 °C -11.2 °C 34097 hPa West 44.1 km/h 57 km/h 95 % 12.7 mm
05:58 -10.7 °C -11.2 °C 34107.2 hPa WSW 31.4 km/h 72.6 km/h 95 % 12.7 mm
06:06 -10.7 °C -11.2 °C 34107.2 hPa WSW 41.7 km/h 59.5 km/h 95 % 7.62 mm
06:10 -10.7 °C -11.2 °C 34107.2 hPa West 31.4 km/h 62.1 km/h 95 % 7.62 mm
06:14 -10.7 °C -11.2 °C 34107.2 hPa WSW 36.5 km/h 62.1 km/h 95 % 7.62 mm
06:20 -10.7 °C -11.2 °C 34107.2 hPa West 49.2 km/h 59.5 km/h 95 % 7.62 mm
06:30 -10.7 °C -11.2 °C 34107.2 hPa West 49.2 km/h 49.2 km/h 95 % 12.7 mm
06:36 -10.7 °C -11.2 °C 34107.2 hPa West 56.6 km/h 57 km/h 95 % 20.32 mm
06:38 -10.7 °C -11.2 °C 34107.2 hPa WNW 28.5 km/h 54.4 km/h 95 % 25.4 mm
06:40 -10.7 °C -11.2 °C 34097 hPa WSW 26.2 km/h 51.8 km/h 95 % 25.4 mm
06:46 -10.7 °C -11.2 °C 34097 hPa SW 36.5 km/h 62.1 km/h 95 % 33.02 mm
06:48 -10.7 °C -11.2 °C 34107.2 hPa West 33.6 km/h 54.4 km/h 95 % 38.1 mm
06:54 -10.7 °C -11.2 °C 34097 hPa WSW 46.3 km/h 64.7 km/h 95 % 38.1 mm
07:00 -10.8 °C -11.2 °C 34097 hPa WSW 44.1 km/h 46.7 km/h 95 % 38.1 mm
07:06 -10.8 °C -11.2 °C 34097 hPa WSW 31.4 km/h 38.8 km/h 95 % 45.72 mm
07:12 -10.8 °C -11.2 °C 34097 hPa West 41.7 km/h 46.7 km/h 95 % 45.72 mm
07:14 -10.8 °C -11.2 °C 34097 hPa WSW 33.6 km/h 49.2 km/h 95 % 50.8 mm
07:20 -10.8 °C -11.2 °C 34097 hPa West 36.5 km/h 80.3 km/h 95 % 50.8 mm
07:26 -10.8 °C -11.2 °C 34097 hPa SW 41.7 km/h 67.3 km/h 95 % 50.8 mm
07:28 -10.8 °C -11.2 °C 34097 hPa WSW 36.5 km/h 62.1 km/h 95 % 45.72 mm
07:32 -10.8 °C -11.2 °C 34097 hPa West 26.2 km/h 54.4 km/h 95 % 45.72 mm
07:38 -10.8 °C -11.2 °C 34107.2 hPa West 38.8 km/h 57 km/h 95 % 38.1 mm
07:44 -10.8 °C -11.2 °C 34107.2 hPa West 41.7 km/h 64.7 km/h 95 % 38.1 mm
07:58 -10.7 °C -11.2 °C 34107.2 hPa WSW 49.2 km/h 69.8 km/h 94 % 33.02 mm
08:04 -10.8 °C -11.3 °C 34107.2 hPa West 33.6 km/h 64.7 km/h 94 % 25.4 mm
08:10 -10.7 °C -11.2 °C 34107.2 hPa WNW 44.1 km/h 67.3 km/h 94 % 25.4 mm
08:18 -10.7 °C -11.2 °C 34107.2 hPa WSW 54.4 km/h 67.3 km/h 94 % 20.32 mm
08:22 -10.7 °C -11.2 °C 34097 hPa West 38.8 km/h 72.6 km/h 94 % 20.32 mm
08:28 -10.8 °C -11.3 °C 34107.2 hPa West 56.6 km/h 72.6 km/h 94 % 12.7 mm
08:34 -10.8 °C -11.3 °C 34107.2 hPa West 65 km/h 65 km/h 94 % 12.7 mm
08:40 -10.8 °C -11.3 °C 34107.2 hPa West 67.1 km/h 77.7 km/h 94 % 12.7 mm
08:42 -10.8 °C -11.3 °C 34107.2 hPa West 31.4 km/h 75.2 km/h 94 % 12.7 mm
08:48 -10.8 °C -11.3 °C 34107.2 hPa West 36.5 km/h 88 km/h 94 % 12.7 mm
08:54 -10.8 °C -11.4 °C 34120.7 hPa WSW 54.4 km/h 77.7 km/h 93 % 12.7 mm
09:00 -10.8 °C -11.4 °C 34120.7 hPa West 59.5 km/h 64.7 km/h 93 % 12.7 mm
09:06 -10.8 °C -11.4 °C 34120.7 hPa WSW 38.8 km/h 82.9 km/h 93 % 12.7 mm
09:12 -10.8 °C -11.4 °C 34120.7 hPa WSW 44.1 km/h 90.6 km/h 93 % 12.7 mm
09:18 -10.8 °C -11.4 °C 34120.7 hPa WSW 54.4 km/h 85.5 km/h 93 % 7.62 mm
09:24 -10.7 °C -11.4 °C 34130.9 hPa SW 46.3 km/h 64.7 km/h 92 % 7.62 mm
09:30 -10.8 °C -11.4 °C 34120.7 hPa West 41.7 km/h 75.2 km/h 93 % 7.62 mm
09:36 -10.8 °C -11.4 °C 34120.7 hPa WSW 70.2 km/h 88 km/h 93 % 7.62 mm
09:42 -10.8 °C -11.4 °C 34130.9 hPa WSW 41.7 km/h 77.7 km/h 93 % 0 mm
09:48 -10.8 °C -11.4 °C 34130.9 hPa SW 33.6 km/h 67.3 km/h 93 % 0 mm
09:54 -10.8 °C -11.5 °C 34130.9 hPa SW 36.5 km/h 67.3 km/h 92 % 0 mm
10:00 -10.8 °C -11.5 °C 34144.4 hPa WSW 44.1 km/h 101.1 km/h 92 % 0 mm
10:04 -10.8 °C -11.5 °C 34144.4 hPa WSW 51.5 km/h 69.8 km/h 92 % 0 mm
10:10 -10.8 °C -11.5 °C 34144.4 hPa SSW 12.7 km/h 67.3 km/h 92 % 0 mm
10:12 -10.8 °C -11.5 °C 34144.4 hPa WSW 36.5 km/h 67.3 km/h 92 % 0 mm
10:18 -10.9 °C -11.5 °C 34144.4 hPa West 46.3 km/h 59.5 km/h 93 % 0 mm
10:20 -10.9 °C -11.5 °C 34144.4 hPa WSW 51.5 km/h 57 km/h 93 % 0 mm
10:26 -10.9 °C -11.5 °C 34130.9 hPa NW 28.5 km/h 62.1 km/h 93 % 0 mm
10:32 -10.9 °C -11.5 °C 34144.4 hPa West 44.1 km/h 62.1 km/h 93 % 0 mm
10:38 -10.9 °C -11.5 °C 34144.4 hPa SW 23 km/h 57 km/h 93 % 0 mm
10:44 -10.9 °C -11.5 °C 34144.4 hPa WSW 41.7 km/h 69.8 km/h 93 % 0 mm
10:50 -10.9 °C -11.5 °C 34154.6 hPa West 36.5 km/h 69.8 km/h 93 % 0 mm
10:56 -10.9 °C -11.5 °C 34154.6 hPa SW 46.3 km/h 54.4 km/h 93 % 0 mm
11:02 -10.9 °C -11.4 °C 34154.6 hPa WSW 28.5 km/h 51.8 km/h 94 % 0 mm
11:08 -10.9 °C -11.4 °C 34154.6 hPa West 46.3 km/h 54.4 km/h 94 % 0 mm
11:18 -10.9 °C -11.4 °C 34154.6 hPa SW 62 km/h 69.8 km/h 94 % 0 mm
11:24 -11 °C -11.5 °C 34154.6 hPa SW 46.3 km/h 46.7 km/h 94 % 0 mm
11:30 -10.9 °C -11.4 °C 34154.6 hPa SSW 28.5 km/h 64.7 km/h 94 % 0 mm
11:36 -10.9 °C -11.4 °C 34154.6 hPa West 31.4 km/h 36.2 km/h 94 % 0 mm
11:44 -10.9 °C -11.4 °C 34144.4 hPa West 36.5 km/h 67.3 km/h 95 % 0 mm
11:50 -10.9 °C -11.4 °C 34154.6 hPa West 31.4 km/h 49.2 km/h 95 % 0 mm
11:54 -10.9 °C -11.4 °C 34144.4 hPa WSW 51.5 km/h 69.8 km/h 95 % 0 mm
11:56 -10.9 °C -11.4 °C 34144.4 hPa WSW 51.5 km/h 62.1 km/h 95 % 0 mm
12:04 -11 °C -11.4 °C 34144.4 hPa WSW 28.5 km/h 59.5 km/h 95 % 0 mm
12:06 -11 °C -11.4 °C 34144.4 hPa WSW 31.4 km/h 67.3 km/h 95 % 0 mm
12:10 -11 °C -11.4 °C 34144.4 hPa WSW 26.2 km/h 51.8 km/h 95 % 0 mm
12:16 -11 °C -11.4 °C 34130.9 hPa WSW 38.8 km/h 38.8 km/h 95 % 7.62 mm
12:18 -11 °C -11.4 °C 34144.4 hPa SW 15.6 km/h 64.7 km/h 95 % 7.62 mm
12:22 -11 °C -11.4 °C 34130.9 hPa WSW 31.4 km/h 59.5 km/h 95 % 7.62 mm
12:24 -11 °C -11.4 °C 34130.9 hPa WSW 36.5 km/h 51.8 km/h 95 % 7.62 mm
12:30 -11 °C -11.4 °C 34144.4 hPa WSW 23 km/h 59.5 km/h 95 % 7.62 mm
12:36 -11 °C -11.4 °C 34144.4 hPa SW 28.5 km/h 62.1 km/h 95 % 7.62 mm
12:42 -11 °C -11.4 °C 34144.4 hPa SW 38.8 km/h 62.1 km/h 95 % 7.62 mm
12:48 -10.9 °C -11.4 °C 34144.4 hPa WSW 31.4 km/h 51.8 km/h 95 % 7.62 mm
12:56 -10.9 °C -11.4 °C 34130.9 hPa WSW 38.8 km/h 54.4 km/h 95 % 7.62 mm
13:02 -10.9 °C -11.4 °C 34130.9 hPa SW 36.5 km/h 75.2 km/h 95 % 12.7 mm
13:06 -10.9 °C -11.4 °C 34130.9 hPa West 15.6 km/h 49.2 km/h 95 % 12.7 mm
13:20 -10.9 °C -11.4 °C 34107.2 hPa WSW 59.5 km/h 80.3 km/h 95 % 7.62 mm
13:26 -10.9 °C -11.4 °C 34107.2 hPa WSW 36.5 km/h 54.4 km/h 95 % 7.62 mm
13:34 -10.9 °C -11.4 °C 34107.2 hPa West 41.7 km/h 67.3 km/h 95 % 7.62 mm
13:38 -10.9 °C -11.4 °C 34107.2 hPa West 38.8 km/h 57 km/h 95 % 7.62 mm
13:44 -10.9 °C -11.4 °C 34097 hPa West 28.5 km/h 72.6 km/h 95 % 7.62 mm
13:50 -10.9 °C -11.4 °C 34107.2 hPa West 41.7 km/h 62.1 km/h 95 % 7.62 mm
13:56 -10.9 °C -11.4 °C 34107.2 hPa SW 26.2 km/h 59.5 km/h 95 % 7.62 mm
14:02 -10.9 °C -11.4 °C 34107.2 hPa WSW 28.5 km/h 59.5 km/h 95 % 0 mm
14:06 -10.9 °C -11.4 °C 34107.2 hPa SW 33.6 km/h 77.7 km/h 94 % 0 mm
14:08 -10.9 °C -11.4 °C 34097 hPa SW 49.2 km/h 64.7 km/h 94 % 0 mm
14:16 -10.9 °C -11.4 °C 34097 hPa WSW 56.6 km/h 59.5 km/h 94 % 0 mm
14:24 -10.9 °C -11.4 °C 34097 hPa West 31.4 km/h 51.8 km/h 94 % 7.62 mm
14:32 -10.9 °C -11.4 °C 34097 hPa WSW 31.4 km/h 51.8 km/h 94 % 7.62 mm
14:38 -10.9 °C -11.4 °C 34086.9 hPa WSW 59.5 km/h 75.2 km/h 95 % 7.62 mm
14:48 -10.9 °C -11.4 °C 34086.9 hPa WSW 31.4 km/h 59.5 km/h 95 % 7.62 mm
14:50 -10.9 °C -11.4 °C 34097 hPa West 38.8 km/h 44.1 km/h 95 % 7.62 mm
14:56 -10.9 °C -11.4 °C 34086.9 hPa WSW 28.5 km/h 59.5 km/h 95 % 7.62 mm
15:00 -10.9 °C -11.4 °C 34086.9 hPa WSW 26.2 km/h 69.8 km/h 95 % 7.62 mm
15:02 -10.9 °C -11.4 °C 34086.9 hPa SW 23 km/h 38.8 km/h 95 % 7.62 mm
15:04 -10.9 °C -11.4 °C 34086.9 hPa SW 31.4 km/h 57 km/h 95 % 7.62 mm
15:10 -10.9 °C -11.4 °C 34086.9 hPa West 28.5 km/h 54.4 km/h 95 % 12.7 mm
15:11 -10.9 °C -11.4 °C 34086.9 hPa West 23 km/h 59.5 km/h 95 % 12.7 mm
15:18 -10.9 °C -11.3 °C 34086.9 hPa West 36.5 km/h 57 km/h 96 % 12.7 mm
15:27 -10.9 °C -11.3 °C 34086.9 hPa SW 26.2 km/h 51.8 km/h 96 % 7.62 mm
15:33 -10.9 °C -11.4 °C 34073.3 hPa SW 51.5 km/h 64.7 km/h 95 % 7.62 mm
15:39 -10.9 °C -11.3 °C 34073.3 hPa West 33.6 km/h 64.7 km/h 95 % 12.7 mm
15:47 -10.8 °C -11.3 °C 34073.3 hPa WSW 44.1 km/h 64.7 km/h 94 % 12.7 mm
15:53 -10.8 °C -11.3 °C 34073.3 hPa WSW 36.5 km/h 49.2 km/h 94 % 12.7 mm
16:01 -10.8 °C -11.3 °C 34073.3 hPa SW 36.5 km/h 46.7 km/h 94 % 12.7 mm
16:03 -10.8 °C -11.3 °C 34073.3 hPa WSW 41.7 km/h 51.8 km/h 94 % 12.7 mm
16:11 -10.7 °C -11.2 °C 34073.3 hPa WSW 31.4 km/h 77.7 km/h 94 % 7.62 mm
16:17 -10.7 °C -11.3 °C 34073.3 hPa WSW 31.4 km/h 62.1 km/h 93 % 7.62 mm
16:29 -10.7 °C -11.3 °C 34073.3 hPa WSW 38.8 km/h 54.4 km/h 93 % 7.62 mm
16:35 -10.7 °C -11.3 °C 34063.2 hPa WSW 38.8 km/h 57 km/h 93 % 0 mm
16:41 -10.7 °C -11.3 °C 34063.2 hPa SW 23 km/h 69.8 km/h 93 % 0 mm
16:47 -10.7 °C -11.3 °C 34063.2 hPa WSW 33.6 km/h 62.1 km/h 93 % 0 mm
16:53 -10.7 °C -11.4 °C 34063.2 hPa WSW 38.8 km/h 57 km/h 92 % 0 mm
17:01 -10.7 °C -11.3 °C 34063.2 hPa WSW 49.2 km/h 49.2 km/h 93 % 0 mm
17:03 -10.7 °C -11.3 °C 34063.2 hPa WSW 28.5 km/h 57 km/h 93 % 0 mm
17:09 -10.7 °C -11.4 °C 34063.2 hPa SW 44.1 km/h 67.3 km/h 92 % 0 mm
17:11 -10.7 °C -11.4 °C 34063.2 hPa WSW 33.6 km/h 62.1 km/h 92 % 0 mm
17:13 -10.7 °C -11.4 °C 34063.2 hPa WSW 46.3 km/h 57 km/h 92 % 0 mm
17:17 -10.7 °C -11.4 °C 34063.2 hPa WSW 38.8 km/h 69.8 km/h 92 % 0 mm
17:23 -10.6 °C -11.4 °C 34063.2 hPa SW 41.7 km/h 77.7 km/h 91 % 0 mm
17:30 -10.6 °C -11.4 °C 34063.2 hPa South 20.9 km/h 64.7 km/h 91 % 0 mm
17:36 -10.6 °C -11.4 °C 34063.2 hPa West 33.6 km/h 67.3 km/h 91 % 0 mm
17:37 -10.6 °C -11.4 °C 34049.6 hPa WSW 44.1 km/h 67.3 km/h 90 % 0 mm
17:43 -10.5 °C -11.4 °C 34063.2 hPa SW 80.5 km/h 80.5 km/h 90 % 0 mm
17:51 -10.5 °C -11.5 °C 34063.2 hPa WSW 51.5 km/h 54.4 km/h 89 % 0 mm
17:53 -10.5 °C -11.5 °C 34063.2 hPa West 33.6 km/h 54.4 km/h 89 % 0 mm
17:59 -10.6 °C -11.5 °C 34063.2 hPa West 17.9 km/h 69.8 km/h 90 % 0 mm
18:05 -10.7 °C -11.5 °C 34063.2 hPa SW 44.1 km/h 62.1 km/h 91 % 7.62 mm
18:07 -10.8 °C -11.6 °C 34049.6 hPa SW 33.6 km/h 69.8 km/h 91 % 7.62 mm
18:11 -10.8 °C -11.6 °C 34049.6 hPa SW 38.8 km/h 62.1 km/h 92 % 7.62 mm
18:25 -10.9 °C -11.6 °C 34049.6 hPa WSW 28.5 km/h 51.8 km/h 92 % 7.62 mm
18:31 -10.9 °C -11.5 °C 34049.6 hPa West 28.5 km/h 46.7 km/h 93 % 12.7 mm
18:33 -10.9 °C -11.5 °C 34049.6 hPa WSW 54.4 km/h 57 km/h 93 % 12.7 mm
18:37 -10.9 °C -11.5 °C 34049.6 hPa West 44.1 km/h 49.2 km/h 93 % 12.7 mm
18:57 -11.1 °C -11.6 °C 34049.6 hPa SW 65 km/h 65 km/h 94 % 12.7 mm
19:05 -11.1 °C -11.6 °C 34049.6 hPa SW 54.4 km/h 54.4 km/h 94 % 12.7 mm
19:07 -11.1 °C -11.6 °C 34049.6 hPa WSW 33.6 km/h 49.2 km/h 94 % 12.7 mm
19:11 -11.1 °C -11.6 °C 34049.6 hPa WSW 26.2 km/h 49.2 km/h 95 % 12.7 mm
19:17 -11.1 °C -11.6 °C 34049.6 hPa West 31.4 km/h 51.8 km/h 95 % 12.7 mm
19:19 -11.1 °C -11.6 °C 34049.6 hPa West 26.2 km/h 41.4 km/h 95 % 12.7 mm
19:23 -11.1 °C -11.6 °C 34049.6 hPa SW 36.5 km/h 54.4 km/h 95 % 12.7 mm
19:31 -11.1 °C -11.6 °C 34049.6 hPa WSW 33.6 km/h 57 km/h 95 % 12.7 mm
19:37 -11.1 °C -11.6 °C 34063.2 hPa WSW 54.4 km/h 62.1 km/h 95 % 12.7 mm
19:39 -11.1 °C -11.6 °C 34063.2 hPa WSW 31.4 km/h 69.8 km/h 95 % 12.7 mm
19:45 -11.1 °C -11.6 °C 34049.6 hPa WSW 38.8 km/h 69.8 km/h 95 % 7.62 mm
19:54 -11.1 °C -11.6 °C 34063.2 hPa SW 38.8 km/h 46.7 km/h 95 % 12.7 mm
19:59 -11.1 °C -11.6 °C 34049.6 hPa West 31.4 km/h 62.1 km/h 95 % 12.7 mm
20:05 -11.1 °C -11.4 °C 34063.2 hPa West 31.4 km/h 51.8 km/h 96 % 12.7 mm
20:11 -11.1 °C -11.4 °C 34063.2 hPa WSW 28.5 km/h 54.4 km/h 96 % 12.7 mm
20:17 -11.1 °C -11.4 °C 34073.3 hPa WNW 46.3 km/h 57 km/h 96 % 12.7 mm
20:23 -11.2 °C -11.7 °C 34073.3 hPa NW 46.3 km/h 72.6 km/h 94 % 25.4 mm
20:29 -11.6 °C -12.2 °C 34086.9 hPa NW 36.5 km/h 59.5 km/h 93 % 33.02 mm
20:36 -11.6 °C -12.3 °C 34086.9 hPa WNW 41.7 km/h 59.5 km/h 92 % 33.02 mm
20:37 -11.8 °C -12.4 °C 34086.9 hPa West 44.1 km/h 62.1 km/h 92 % 33.02 mm
20:49 -11.9 °C -12.8 °C 34073.3 hPa SW 20.9 km/h 36.2 km/h 90 % 25.4 mm
20:55 -11.8 °C -12.9 °C 34086.9 hPa West 31.4 km/h 41.4 km/h 88 % 20.32 mm
21:01 -11.9 °C -13.1 °C 34086.9 hPa NW 26.2 km/h 33.6 km/h 87 % 20.32 mm
21:07 -11.9 °C -13.1 °C 34086.9 hPa WNW 23 km/h 41.4 km/h 87 % 20.32 mm
21:13 -12.1 °C -13.1 °C 34097 hPa WNW 23 km/h 28.5 km/h 88 % 12.7 mm
21:19 -12.1 °C -13.1 °C 34097 hPa West 26.2 km/h 33.6 km/h 88 % 7.62 mm
21:25 -12.1 °C -13.2 °C 34097 hPa West 12.7 km/h 23.3 km/h 88 % 0 mm
21:31 -12.1 °C -13.2 °C 34097 hPa WNW 15.6 km/h 33.6 km/h 88 % 0 mm
21:37 -12.2 °C -13.2 °C 34107.2 hPa West 17.9 km/h 28.5 km/h 88 % 0 mm
21:39 -12.2 °C -13.2 °C 34107.2 hPa WSW 10.3 km/h 25.9 km/h 88 % 0 mm
21:45 -12.3 °C -13.2 °C 34107.2 hPa WNW 26.2 km/h 38.8 km/h 89 % 0 mm
21:51 -12.3 °C -13.3 °C 34120.7 hPa West 23 km/h 33.6 km/h 89 % 0 mm
21:57 -12.4 °C -13.3 °C 34120.7 hPa West 17.9 km/h 31.1 km/h 89 % 0 mm
22:13 -12.4 °C -13.3 °C 34130.9 hPa West 20.9 km/h 23.3 km/h 89 % 0 mm
22:25 -12.4 °C -13.4 °C 34120.7 hPa WSW 31.4 km/h 31.4 km/h 89 % 0 mm
22:37 -12.6 °C -13.5 °C 34130.9 hPa West 31.4 km/h 33.6 km/h 89 % 0 mm
22:43 -12.6 °C -13.6 °C 34130.9 hPa WSW 28.5 km/h 28.5 km/h 89 % 0 mm
22:49 -12.6 °C -13.6 °C 34130.9 hPa West 15.6 km/h 33.6 km/h 89 % 0 mm
22:53 -12.6 °C -13.6 °C 34130.9 hPa West 26.2 km/h 33.6 km/h 89 % 0 mm
22:55 -12.6 °C -13.6 °C 34130.9 hPa West 23 km/h 31.1 km/h 89 % 0 mm
23:07 -12.7 °C -13.6 °C 34130.9 hPa WSW 26.2 km/h 28.5 km/h 90 % 0 mm
23:09 -12.7 °C -13.6 °C 34144.4 hPa WSW 17.9 km/h 31.1 km/h 90 % 0 mm
23:15 -12.7 °C -13.6 °C 34144.4 hPa WSW 23 km/h 31.1 km/h 90 % 0 mm
23:19 -12.7 °C -13.6 °C 34144.4 hPa SW 10.3 km/h 25.9 km/h 90 % 0 mm
23:25 -12.7 °C -13.6 °C 34144.4 hPa WSW 5.1 km/h 23.3 km/h 90 % 0 mm
23:31 -12.7 °C -13.6 °C 34144.4 hPa SW 12.7 km/h 28.5 km/h 90 % 0 mm
23:35 -12.7 °C -13.6 °C 34144.4 hPa SW 33.6 km/h 38.8 km/h 90 % 0 mm
23:41 -12.7 °C -13.6 °C 34144.4 hPa WSW 12.7 km/h 20.8 km/h 90 % 0 mm
23:42 -12.7 °C -13.6 °C 34144.4 hPa SSW 17.9 km/h 33.6 km/h 90 % 0 mm
23:49 -12.7 °C -13.6 °C 34144.4 hPa SW 10.3 km/h 23.3 km/h 90 % 0 mm
23:51 -12.7 °C -13.6 °C 34144.4 hPa SW 17.9 km/h 23.3 km/h 90 % 0 mm
23:57 -12.7 °C -13.4 °C 34144.4 hPa SW 20.9 km/h 25.9 km/h 91 % 0 mm
Meteo18
Compliments of Weather Underground - 4 mb

Script developed by  Jim McMurry - jmcmurry@mwt.net Adapted for the template by  Wim van der Kuil - Leuven-Template.eu

You find our weather info also at:

European Weather Network

Weather Underground

Equipment we use:

Weather-station
Davis Vue

Weather-program
Meteobridge

Weather-server
Raspberry PI 2 B+

Provider
1 and 1

Davis Vue

Meteobridge

Raspberry PI 2 B+

1 and 1